createdAt,value
2019-03-13T00:02:27.038Z,5.70
2019-03-13T00:04:54.466Z,5.80
2019-03-13T00:07:21.968Z,5.80
2019-03-13T00:09:49.357Z,5.80
2019-03-13T00:12:16.810Z,5.70
2019-03-13T00:14:44.213Z,5.80
2019-03-13T00:17:11.605Z,5.90
2019-03-13T00:19:39.053Z,5.90
2019-03-13T00:22:10.035Z,5.90
2019-03-13T00:24:37.440Z,5.90
2019-03-13T00:27:05.074Z,5.90
2019-03-13T00:29:32.459Z,5.80
2019-03-13T00:31:59.874Z,5.80
2019-03-13T00:34:27.280Z,5.80
2019-03-13T00:36:54.672Z,5.90
2019-03-13T00:39:22.068Z,5.90
2019-03-13T00:41:49.519Z,5.90
2019-03-13T00:44:16.894Z,5.90
2019-03-13T00:46:44.549Z,5.90
2019-03-13T00:49:12.189Z,5.80
2019-03-13T00:51:39.578Z,5.70
2019-03-13T00:54:06.975Z,5.60
2019-03-13T00:56:34.474Z,5.60
2019-03-13T00:59:01.854Z,5.50
2019-03-13T01:01:51.571Z,5.40
2019-03-13T01:04:29.019Z,5.30
2019-03-13T01:06:59.909Z,5.30
2019-03-13T01:09:27.877Z,5.20
2019-03-13T01:11:55.264Z,5.20
2019-03-13T01:14:22.691Z,5.10
2019-03-13T01:16:50.084Z,5.10
2019-03-13T01:19:17.477Z,5.10
2019-03-13T01:21:44.905Z,5.10
2019-03-13T01:24:12.294Z,5.10
2019-03-13T01:26:39.706Z,5.10
2019-03-13T01:29:07.181Z,5.20
2019-03-13T01:31:53.502Z,5.20
2019-03-13T01:34:27.347Z,5.20
2019-03-13T01:36:54.742Z,5.30
2019-03-13T01:39:22.122Z,5.30
2019-03-13T01:41:49.709Z,5.40
2019-03-13T01:44:17.107Z,5.30
2019-03-13T01:46:44.509Z,5.30
2019-03-13T01:49:12.140Z,5.40
2019-03-13T01:51:40.612Z,5.40
2019-03-13T01:54:07.998Z,5.50
2019-03-13T01:56:35.429Z,5.40
2019-03-13T01:59:02.833Z,5.50
2019-03-13T02:01:30.214Z,5.40
2019-03-13T02:03:57.782Z,5.40
2019-03-13T02:06:25.187Z,5.50
2019-03-13T02:08:52.566Z,5.40
2019-03-13T02:11:20.093Z,5.50
2019-03-13T02:13:47.496Z,5.50
2019-03-13T02:16:14.890Z,5.40
2019-03-13T02:18:42.470Z,5.40
2019-03-13T02:21:09.872Z,5.30
2019-03-13T02:23:37.258Z,5.30
2019-03-13T02:26:04.709Z,5.20
2019-03-13T02:28:32.098Z,5.20
2019-03-13T02:30:59.508Z,5.20
2019-03-13T02:33:26.926Z,5.20
2019-03-13T02:35:54.320Z,5.10
2019-03-13T02:38:21.721Z,5.10
2019-03-13T02:40:49.149Z,5.10
2019-03-13T02:43:16.632Z,5.20
2019-03-13T02:45:44.031Z,5.20
2019-03-13T02:48:11.482Z,5.20
2019-03-13T02:50:38.846Z,5.30
2019-03-13T02:53:06.582Z,5.30
2019-03-13T02:55:34.186Z,5.40
2019-03-13T02:58:01.590Z,5.40
2019-03-13T03:00:47.138Z,5.40
2019-03-13T03:03:27.991Z,5.40
2019-03-13T03:05:56.019Z,5.50
2019-03-13T03:08:23.399Z,5.50
2019-03-13T03:10:50.810Z,5.50
2019-03-13T03:13:18.232Z,5.50
2019-03-13T03:15:45.517Z,5.50
2019-03-13T03:18:12.946Z,5.50
2019-03-13T03:20:40.376Z,5.60
2019-03-13T03:23:09.575Z,5.60
2019-03-13T03:25:36.965Z,5.60
2019-03-13T03:28:04.659Z,5.50
2019-03-13T03:30:32.289Z,5.60
2019-03-13T03:32:59.669Z,5.50
2019-03-13T03:35:27.138Z,5.40
2019-03-13T03:37:54.526Z,5.40
2019-03-13T03:40:23.390Z,5.30
2019-03-13T03:42:51.201Z,5.20
2019-03-13T03:45:18.566Z,5.20
2019-03-13T03:47:46.215Z,5.10
2019-03-13T03:50:14.254Z,5.10
2019-03-13T03:52:41.639Z,5.10
2019-03-13T03:55:09.278Z,5.00
2019-03-13T03:57:36.871Z,5.00
2019-03-13T04:00:05.546Z,5.00
2019-03-13T04:02:32.971Z,5.00
2019-03-13T04:05:00.850Z,5.00
2019-03-13T04:07:28.392Z,5.00
2019-03-13T04:09:55.783Z,5.00
2019-03-13T04:12:23.382Z,5.00
2019-03-13T04:14:50.844Z,4.90
2019-03-13T04:17:18.263Z,4.80
2019-03-13T04:19:45.726Z,4.90
2019-03-13T04:22:13.135Z,4.90
2019-03-13T04:24:40.538Z,4.90
2019-03-13T04:27:08.015Z,4.90
2019-03-13T04:29:35.410Z,4.80
2019-03-13T04:32:02.797Z,4.70
2019-03-13T04:34:30.247Z,4.70
2019-03-13T04:36:57.631Z,4.60
2019-03-13T04:39:25.033Z,4.60
2019-03-13T04:41:52.461Z,4.60
2019-03-13T04:44:19.846Z,4.50
2019-03-13T04:46:47.249Z,4.50
2019-03-13T04:49:14.679Z,4.50
2019-03-13T04:51:42.890Z,4.60
2019-03-13T04:54:10.277Z,4.60
2019-03-13T04:56:37.747Z,4.60
2019-03-13T04:59:05.143Z,4.60
2019-03-13T05:01:32.532Z,4.60
2019-03-13T05:04:00.102Z,4.70
2019-03-13T05:06:27.490Z,4.70
2019-03-13T05:09:15.890Z,4.70
2019-03-13T05:11:43.273Z,4.70
2019-03-13T05:14:10.662Z,4.80
2019-03-13T05:16:38.104Z,4.80
2019-03-13T05:19:05.509Z,4.80
2019-03-13T05:21:32.902Z,4.80
2019-03-13T05:24:00.366Z,4.80
2019-03-13T05:26:27.766Z,4.90
2019-03-13T05:28:55.176Z,4.90
2019-03-13T05:31:22.874Z,4.80
2019-03-13T05:33:50.254Z,4.80
2019-03-13T05:36:17.651Z,4.90
2019-03-13T05:38:45.342Z,4.90
2019-03-13T05:41:12.734Z,4.90
2019-03-13T05:43:40.242Z,4.90
2019-03-13T05:46:07.685Z,5.00
2019-03-13T05:48:35.523Z,5.10
2019-03-13T05:51:02.919Z,5.10
2019-03-13T05:53:30.562Z,5.30
2019-03-13T05:55:57.914Z,5.20
2019-03-13T05:58:25.317Z,5.10
2019-03-13T06:00:52.898Z,5.10
2019-03-13T06:03:20.310Z,5.20
2019-03-13T06:05:47.710Z,5.20
2019-03-13T06:08:18.284Z,5.30
2019-03-13T06:10:44.344Z,5.40
2019-03-13T06:13:11.724Z,5.30
2019-03-13T06:15:39.318Z,5.40
2019-03-13T06:18:09.586Z,5.30
2019-03-13T06:20:35.929Z,5.40
2019-03-13T06:23:03.395Z,5.40
2019-03-13T06:25:30.790Z,5.50
2019-03-13T06:27:58.197Z,5.40
2019-03-13T06:30:25.610Z,5.50
2019-03-13T06:32:53.010Z,5.50
2019-03-13T06:35:23.456Z,5.50
2019-03-13T06:37:49.756Z,5.40
2019-03-13T06:40:17.153Z,5.40
2019-03-13T06:42:44.542Z,5.40
2019-03-13T06:45:12.487Z,5.40
2019-03-13T06:47:39.882Z,5.30
2019-03-13T06:50:10.870Z,5.30
2019-03-13T06:52:38.622Z,5.20
2019-03-13T06:55:06.143Z,5.20
2019-03-13T06:57:33.539Z,5.20
2019-03-13T07:00:15.688Z,5.20
2019-03-13T07:02:49.148Z,5.20
2019-03-13T07:05:24.145Z,5.20
2019-03-13T07:08:16.822Z,5.20
2019-03-13T07:11:06.471Z,5.30
2019-03-13T07:13:42.966Z,5.30
2019-03-13T07:16:33.638Z,5.40
2019-03-13T07:19:19.152Z,5.50
2019-03-13T07:22:24.646Z,5.60
2019-03-13T07:25:04.822Z,5.60
2019-03-13T07:27:57.945Z,5.60
2019-03-13T07:30:37.186Z,5.60
2019-03-13T07:33:22.872Z,5.70
2019-03-13T07:36:04.039Z,5.60
2019-03-13T07:38:59.387Z,5.70
2019-03-13T07:41:35.690Z,5.70
2019-03-13T07:44:14.528Z,5.60
2019-03-13T07:47:16.510Z,5.70
2019-03-13T07:50:02.318Z,5.60
2019-03-13T07:52:47.011Z,5.70
2019-03-13T07:55:40.035Z,5.70
2019-03-13T07:58:29.931Z,5.70
2019-03-13T08:01:20.140Z,5.80
2019-03-13T08:04:16.361Z,5.80
2019-03-13T08:07:03.302Z,5.80
2019-03-13T08:09:52.733Z,5.90
2019-03-13T08:12:42.438Z,6.00
2019-03-13T08:15:18.537Z,6.00
2019-03-13T08:17:57.459Z,6.10
2019-03-13T08:20:56.239Z,6.30
2019-03-13T08:23:46.347Z,6.40
2019-03-13T08:26:33.258Z,6.50
2019-03-13T08:29:21.532Z,6.70
2019-03-13T08:32:19.829Z,6.90
2019-03-13T08:35:07.449Z,7.00
2019-03-13T08:37:58.433Z,7.00
2019-03-13T08:40:39.656Z,7.10
2019-03-13T08:43:25.176Z,7.20
2019-03-13T08:46:13.195Z,7.20
2019-03-13T08:49:08.750Z,7.30
2019-03-13T08:51:44.798Z,7.50
2019-03-13T08:54:37.499Z,7.60
2019-03-13T08:57:33.886Z,7.80
2019-03-13T09:00:19.593Z,7.80
2019-03-13T09:03:06.556Z,8.00
2019-03-13T09:05:50.662Z,8.00
2019-03-13T09:08:36.187Z,8.00
2019-03-13T09:11:18.836Z,8.20
2019-03-13T09:14:05.785Z,8.20
2019-03-13T09:16:42.007Z,8.30
2019-03-13T09:19:34.557Z,8.20
2019-03-13T09:22:33.350Z,8.30
2019-03-13T09:25:12.405Z,8.20
2019-03-13T09:27:59.557Z,8.40
2019-03-13T09:30:49.296Z,8.50
2019-03-13T09:33:29.594Z,8.50
2019-03-13T09:36:25.433Z,8.50
2019-03-13T09:39:18.347Z,8.60
2019-03-13T09:42:02.803Z,8.70
2019-03-13T09:44:38.229Z,8.80
2019-03-13T09:47:12.789Z,8.80
2019-03-13T09:49:59.797Z,8.80
2019-03-13T09:52:56.308Z,8.90
2019-03-13T09:55:45.795Z,9.00
2019-03-13T09:58:38.652Z,9.00
2019-03-13T10:01:30.610Z,9.10
2019-03-13T10:04:35.646Z,9.30
2019-03-13T10:07:25.157Z,9.30
2019-03-13T10:10:15.161Z,9.30
2019-03-13T10:13:08.105Z,9.30
2019-03-13T10:15:47.478Z,9.40
2019-03-13T10:18:24.010Z,9.50
2019-03-13T10:21:17.699Z,9.60
2019-03-13T10:23:52.710Z,9.70
2019-03-13T10:26:36.216Z,9.80
2019-03-13T10:29:14.142Z,9.80
2019-03-13T10:32:06.105Z,9.80
2019-03-13T10:35:05.398Z,9.90
2019-03-13T10:37:58.072Z,10.00
2019-03-13T10:40:41.190Z,10.10
2019-03-13T10:43:46.534Z,10.00
2019-03-13T10:46:39.219Z,10.10
2019-03-13T10:49:31.934Z,10.10
2019-03-13T10:52:24.858Z,10.20
2019-03-13T10:55:11.274Z,10.10
2019-03-13T10:57:49.961Z,10.10
2019-03-13T11:00:55.088Z,10.10
2019-03-13T11:03:47.569Z,10.00
2019-03-13T11:06:54.926Z,10.30
2019-03-13T11:09:30.934Z,10.30
2019-03-13T11:12:03.719Z,10.40
2019-03-13T11:14:43.162Z,10.40
2019-03-13T11:17:21.014Z,10.50
2019-03-13T11:20:06.363Z,10.50
2019-03-13T11:23:01.995Z,10.40
2019-03-13T11:25:54.944Z,10.30
2019-03-13T11:28:50.960Z,10.20
2019-03-13T11:31:36.435Z,10.20
2019-03-13T11:34:23.526Z,10.10
2019-03-13T11:37:09.038Z,10.00
2019-03-13T11:39:54.502Z,10.00
2019-03-13T11:42:39.849Z,9.80
2019-03-13T11:45:15.924Z,9.70
2019-03-13T11:48:00.303Z,9.50
2019-03-13T11:50:59.330Z,9.50
2019-03-13T11:53:45.086Z,9.40
2019-03-13T11:56:24.031Z,9.30
2019-03-13T11:59:17.081Z,9.30
2019-03-13T12:02:16.155Z,9.40
2019-03-13T12:05:03.058Z,9.40
2019-03-13T12:07:52.866Z,9.40
2019-03-13T12:10:26.693Z,9.40
2019-03-13T12:13:31.797Z,9.40
2019-03-13T12:16:27.477Z,9.50
2019-03-13T12:19:01.901Z,9.70
2019-03-13T12:21:38.203Z,9.90
2019-03-13T12:24:27.662Z,10.00
2019-03-13T12:27:05.173Z,10.20
2019-03-13T12:29:54.979Z,10.40
2019-03-13T12:32:44.686Z,10.50
2019-03-13T12:35:23.691Z,10.50
2019-03-13T12:37:58.449Z,10.70
2019-03-13T12:40:44.314Z,10.70
2019-03-13T12:43:24.705Z,10.80
2019-03-13T12:46:12.107Z,10.90
2019-03-13T12:48:47.246Z,10.80
2019-03-13T12:51:27.344Z,10.60
2019-03-13T12:54:23.053Z,10.60
2019-03-13T12:57:04.210Z,10.50
2019-03-13T12:59:53.698Z,10.40
2019-03-13T13:02:40.666Z,10.50
2019-03-13T13:05:19.682Z,10.50
2019-03-13T13:08:15.518Z,10.60
2019-03-13T13:11:08.237Z,10.50
2019-03-13T13:14:13.173Z,10.50
2019-03-13T13:17:05.684Z,10.50
2019-03-13T13:19:33.124Z,10.50
2019-03-13T13:22:00.521Z,10.60
2019-03-13T13:24:27.902Z,10.50
2019-03-13T13:26:55.407Z,10.70
2019-03-13T13:29:22.818Z,10.80
2019-03-13T13:31:50.205Z,10.80
2019-03-13T13:34:18.008Z,10.80
2019-03-13T13:36:45.306Z,10.70
2019-03-13T13:39:12.693Z,10.70
2019-03-13T13:41:40.008Z,10.60
2019-03-13T13:44:07.396Z,10.60
2019-03-13T13:46:37.692Z,10.60
2019-03-13T13:49:05.541Z,10.70
2019-03-13T13:51:33.269Z,10.70
2019-03-13T13:54:01.016Z,10.80
2019-03-13T13:56:28.492Z,11.00
2019-03-13T13:58:55.877Z,11.20
2019-03-13T14:01:23.255Z,11.50
2019-03-13T14:03:50.688Z,11.50
2019-03-13T14:06:18.066Z,11.40
2019-03-13T14:08:45.438Z,11.30
2019-03-13T14:11:12.875Z,11.20
2019-03-13T14:13:40.259Z,11.10
2019-03-13T14:16:07.644Z,10.90
2019-03-13T14:18:35.064Z,10.70
2019-03-13T14:21:02.443Z,10.70
2019-03-13T14:23:29.824Z,10.60
2019-03-13T14:25:57.249Z,10.50
2019-03-13T14:28:24.637Z,10.50
2019-03-13T14:30:52.041Z,10.50
2019-03-13T14:33:19.493Z,10.50
2019-03-13T14:35:46.902Z,10.30
2019-03-13T14:38:14.294Z,10.30
2019-03-13T14:40:41.688Z,10.20
2019-03-13T14:43:09.063Z,10.00
2019-03-13T14:45:36.446Z,10.00
2019-03-13T14:48:04.130Z,9.90
2019-03-13T14:50:31.522Z,9.90
2019-03-13T14:52:59.172Z,10.00
2019-03-13T14:55:27.118Z,10.00
2019-03-13T14:57:54.516Z,10.30
2019-03-13T15:00:21.918Z,10.70
2019-03-13T15:02:49.326Z,11.00
2019-03-13T15:05:16.709Z,11.10
2019-03-13T15:07:44.106Z,10.90
2019-03-13T15:10:12.258Z,10.70
2019-03-13T15:12:42.830Z,10.70
2019-03-13T15:15:09.852Z,10.80
2019-03-13T15:17:37.274Z,10.80
2019-03-13T15:20:07.087Z,10.80
2019-03-13T15:22:34.466Z,10.80
2019-03-13T15:25:01.906Z,10.70
2019-03-13T15:27:29.305Z,10.50
2019-03-13T15:29:56.691Z,10.30
2019-03-13T15:32:24.113Z,10.00
2019-03-13T15:34:51.506Z,9.80
2019-03-13T15:37:18.886Z,9.60
2019-03-13T15:39:46.307Z,9.50
2019-03-13T15:42:13.676Z,9.40
2019-03-13T15:44:41.054Z,9.30
2019-03-13T15:47:08.516Z,9.20
2019-03-13T15:49:35.904Z,9.10
2019-03-13T15:52:03.427Z,9.00
2019-03-13T15:54:31.239Z,8.90
2019-03-13T15:56:58.642Z,8.80
2019-03-13T15:59:26.040Z,8.70
2019-03-13T16:01:53.538Z,8.70
2019-03-13T16:04:20.942Z,8.60
2019-03-13T16:06:48.349Z,8.50
2019-03-13T16:09:15.968Z,8.50
2019-03-13T16:11:43.382Z,8.50
2019-03-13T16:14:10.818Z,8.50
2019-03-13T16:16:38.411Z,8.40
2019-03-13T16:19:05.837Z,8.30
2019-03-13T16:21:33.227Z,8.30
2019-03-13T16:24:00.890Z,8.30
2019-03-13T16:26:28.340Z,8.30
2019-03-13T16:28:55.762Z,8.30
2019-03-13T16:31:23.202Z,8.20
2019-03-13T16:33:50.608Z,8.10
2019-03-13T16:36:18.009Z,8.10
2019-03-13T16:38:45.558Z,8.10
2019-03-13T16:41:12.954Z,8.00
2019-03-13T16:43:40.370Z,8.00
2019-03-13T16:46:07.826Z,7.90
2019-03-13T16:48:35.229Z,7.90
2019-03-13T16:51:02.615Z,7.90
2019-03-13T16:53:30.136Z,7.80
2019-03-13T16:55:57.970Z,7.80
2019-03-13T16:58:25.371Z,7.70
2019-03-13T17:00:52.822Z,7.70
2019-03-13T17:03:20.235Z,7.70
2019-03-13T17:05:47.638Z,7.60
2019-03-13T17:08:15.298Z,7.40
2019-03-13T17:10:42.692Z,7.40
2019-03-13T17:13:10.087Z,7.30
2019-03-13T17:15:37.549Z,7.30
2019-03-13T17:18:04.967Z,7.20
2019-03-13T17:20:32.376Z,7.10
2019-03-13T17:22:59.814Z,7.00
2019-03-13T17:25:27.207Z,7.00
2019-03-13T17:27:54.593Z,6.90
2019-03-13T17:30:23.853Z,6.80
2019-03-13T17:32:51.396Z,6.70
2019-03-13T17:35:18.785Z,6.60
2019-03-13T17:37:46.436Z,6.60
2019-03-13T17:40:15.621Z,6.50
2019-03-13T17:42:43.010Z,6.40
2019-03-13T17:45:12.930Z,6.40
2019-03-13T17:47:41.562Z,6.30
2019-03-13T17:50:10.591Z,6.10
2019-03-13T17:52:38.435Z,6.00
2019-03-13T17:55:07.146Z,5.80
2019-03-13T17:57:35.568Z,5.70
2019-03-13T18:00:04.358Z,5.60
2019-03-13T18:02:31.746Z,5.60
2019-03-13T18:04:59.147Z,5.40
2019-03-13T18:07:27.094Z,5.30
2019-03-13T18:09:54.513Z,5.20
2019-03-13T18:12:21.921Z,5.20
2019-03-13T18:14:49.388Z,5.10
2019-03-13T18:17:16.790Z,5.00
2019-03-13T18:19:44.199Z,4.90
2019-03-13T18:22:11.640Z,4.90
2019-03-13T18:24:39.023Z,5.00
2019-03-13T18:27:06.422Z,4.90
2019-03-13T18:29:33.875Z,4.80
2019-03-13T18:32:01.362Z,4.80
2019-03-13T18:34:28.759Z,4.90
2019-03-13T18:36:56.230Z,4.80
2019-03-13T18:39:23.648Z,4.80
2019-03-13T18:41:51.286Z,4.80
2019-03-13T18:44:18.814Z,4.80
2019-03-13T18:46:46.210Z,4.70
2019-03-13T18:49:13.599Z,4.60
2019-03-13T18:51:41.049Z,4.60
2019-03-13T18:54:08.908Z,4.60
2019-03-13T18:56:38.532Z,4.50
2019-03-13T18:59:05.843Z,4.50
2019-03-13T19:01:35.056Z,4.50
2019-03-13T19:04:02.485Z,4.40
2019-03-13T19:06:29.938Z,4.30
2019-03-13T19:08:57.355Z,4.30
2019-03-13T19:11:24.750Z,4.30
2019-03-13T19:13:52.317Z,4.20
2019-03-13T19:16:19.768Z,4.20
2019-03-13T19:18:47.173Z,4.20
2019-03-13T19:21:14.621Z,4.20
2019-03-13T19:23:43.179Z,4.20
2019-03-13T19:26:10.573Z,4.20
2019-03-13T19:28:38.440Z,4.20
2019-03-13T19:31:06.108Z,4.20
2019-03-13T19:33:35.325Z,4.20
2019-03-13T19:36:04.603Z,4.20
2019-03-13T19:38:32.113Z,4.10
2019-03-13T19:40:59.707Z,4.20
2019-03-13T19:43:27.443Z,4.10
2019-03-13T19:45:54.850Z,4.10
2019-03-13T19:48:22.309Z,4.10
2019-03-13T19:50:51.432Z,4.10
2019-03-13T19:53:20.965Z,4.10
2019-03-13T19:55:48.553Z,4.10
2019-03-13T19:58:16.023Z,4.10
2019-03-13T20:00:43.870Z,4.20
2019-03-13T20:03:11.514Z,4.20
2019-03-13T20:05:45.238Z,4.20
2019-03-13T20:08:08.471Z,4.20
2019-03-13T20:10:36.075Z,4.30
2019-03-13T20:13:04.235Z,4.30
2019-03-13T20:15:32.115Z,4.30
2019-03-13T20:17:59.529Z,4.40
2019-03-13T20:20:27.019Z,4.40
2019-03-13T20:22:58.091Z,4.50
2019-03-13T20:25:25.604Z,4.50
2019-03-13T20:27:54.676Z,4.40
2019-03-13T20:30:25.587Z,4.40
2019-03-13T20:32:53.156Z,4.40
2019-03-13T20:35:20.800Z,4.40
2019-03-13T20:37:50.036Z,4.40
2019-03-13T20:40:18.610Z,4.40
2019-03-13T20:42:46.007Z,4.40
2019-03-13T20:45:15.520Z,4.40
2019-03-13T20:47:43.300Z,4.40
2019-03-13T20:50:10.923Z,4.50
2019-03-13T20:52:38.661Z,4.50
2019-03-13T20:55:07.325Z,4.50
2019-03-13T20:57:34.833Z,4.60
2019-03-13T21:00:02.674Z,4.60
2019-03-13T21:02:30.107Z,4.60
2019-03-13T21:05:01.660Z,4.60
2019-03-13T21:07:29.194Z,4.60
2019-03-13T21:09:56.658Z,4.70
2019-03-13T21:12:24.142Z,4.70
2019-03-13T21:14:51.662Z,4.70
2019-03-13T21:17:19.088Z,4.70
2019-03-13T21:19:48.626Z,4.70
2019-03-13T21:22:16.126Z,4.70
2019-03-13T21:24:43.610Z,4.80
2019-03-13T21:27:11.143Z,4.80
2019-03-13T21:29:38.831Z,4.80
2019-03-13T21:32:06.529Z,4.80
2019-03-13T21:34:34.171Z,4.90
2019-03-13T21:37:01.573Z,4.90
2019-03-13T21:39:28.986Z,4.90
2019-03-13T21:41:56.516Z,5.00
2019-03-13T21:44:24.037Z,5.00
2019-03-13T21:46:53.960Z,5.10
2019-03-13T21:49:23.593Z,5.00
2019-03-13T21:51:50.989Z,5.10
2019-03-13T21:54:18.645Z,5.10
2019-03-13T21:56:46.295Z,5.10
2019-03-13T21:59:13.677Z,5.10
2019-03-13T22:01:41.090Z,5.10
2019-03-13T22:04:08.537Z,5.20
2019-03-13T22:06:35.938Z,5.20
2019-03-13T22:09:05.170Z,5.20
2019-03-13T22:11:32.730Z,5.20
2019-03-13T22:14:00.145Z,5.20
2019-03-13T22:16:27.535Z,5.30
2019-03-13T22:18:55.208Z,5.30
2019-03-13T22:21:22.606Z,5.30
2019-03-13T22:23:50.038Z,5.40
2019-03-13T22:26:17.474Z,5.30
2019-03-13T22:28:44.867Z,5.30
2019-03-13T22:31:12.434Z,5.30
2019-03-13T22:33:40.083Z,5.20
2019-03-13T22:36:07.649Z,5.20
2019-03-13T22:38:35.072Z,5.20
2019-03-13T22:41:02.507Z,5.20
2019-03-13T22:43:29.909Z,5.20
2019-03-13T22:45:57.303Z,5.20
2019-03-13T22:48:24.869Z,5.10
2019-03-13T22:50:52.253Z,5.10
2019-03-13T22:53:19.798Z,5.10
2019-03-13T22:55:47.871Z,5.20
2019-03-13T22:58:15.271Z,5.20
2019-03-13T23:00:59.228Z,5.20
2019-03-13T23:03:28.586Z,5.20
2019-03-13T23:05:56.199Z,5.20
2019-03-13T23:08:23.798Z,5.20
2019-03-13T23:10:51.258Z,5.30
2019-03-13T23:13:18.664Z,5.30
2019-03-13T23:15:46.400Z,5.40
2019-03-13T23:18:13.804Z,5.40
2019-03-13T23:20:41.191Z,5.50
2019-03-13T23:23:08.885Z,5.50
2019-03-13T23:25:36.294Z,5.40
2019-03-13T23:28:03.699Z,5.40
2019-03-13T23:30:31.414Z,5.40
2019-03-13T23:32:59.173Z,5.40
2019-03-13T23:35:26.581Z,5.40
2019-03-13T23:37:54.371Z,5.30
2019-03-13T23:40:21.974Z,5.30
2019-03-13T23:42:49.373Z,5.30
2019-03-13T23:45:16.836Z,5.30
2019-03-13T23:47:44.254Z,5.30
2019-03-13T23:50:11.669Z,5.30
2019-03-13T23:52:39.354Z,5.30
2019-03-13T23:55:08.425Z,5.40
2019-03-13T23:57:36.045Z,5.40
